Time,TemperatureF,DewpointF,PressureIn,WindDirection,WindDirectionDegrees,WindSpeedMPH,WindSpeedGustMPH,Humidity,HourlyPrecipIn,Conditions,Clouds,dailyrainin,SoftwareType,DateUTC
2015-04-28 00:00:00,43.6,38.8,29.79,ENE,61,6.0,11.0,83,0.00,,,0.00,Wunderground v.1.15,2015-04-28 04:00:00,
2015-04-28 00:05:00,43.3,38.8,29.79,ENE,62,6.0,11.0,84,0.00,,,0.00,Wunderground v.1.15,2015-04-28 04:05:00,
2015-04-28 00:10:00,43.2,38.7,29.79,North,350,7.0,7.0,84,0.00,,,0.00,Wunderground v.1.15,2015-04-28 04:10:00,
2015-04-28 00:20:00,43.1,38.3,29.79,North,5,6.0,11.0,83,0.00,,,0.00,Wunderground v.1.15,2015-04-28 04:20:00,
2015-04-28 00:30:00,43.4,38.3,29.79,ENE,62,8.0,8.0,82,0.00,,,0.00,Wunderground v.1.15,2015-04-28 04:30:00,
2015-04-28 00:35:00,43.4,38.3,29.79,NNE,24,8.0,8.0,82,0.00,,,0.00,Wunderground v.1.15,2015-04-28 04:35:00,
2015-04-28 00:40:00,43.3,38.2,29.79,ENE,61,8.0,8.0,82,0.00,,,0.00,Wunderground v.1.15,2015-04-28 04:40:00,
2015-04-28 00:45:00,43.2,38.4,29.79,North,5,8.0,11.0,83,0.00,,,0.00,Wunderground v.1.15,2015-04-28 04:45:00,
2015-04-28 00:50:00,43.2,38.1,29.79,ENE,61,9.0,9.0,82,0.00,,,0.00,Wunderground v.1.15,2015-04-28 04:50:00,
2015-04-28 00:55:00,43.1,38.3,29.79,NE,38,8.0,9.0,83,0.00,,,0.00,Wunderground v.1.15,2015-04-28 04:55:00,
2015-04-28 01:00:00,42.9,38.1,29.79,NE,49,8.0,8.0,83,0.00,,,0.00,Wunderground v.1.15,2015-04-28 05:00:00,
2015-04-28 01:05:00,42.9,38.1,29.79,NNE,27,9.0,11.0,83,0.00,,,0.00,Wunderground v.1.15,2015-04-28 05:05:00,
2015-04-28 01:10:00,42.9,38.1,29.79,NNE,14,10.0,10.0,83,0.00,,,0.00,Wunderground v.1.15,2015-04-28 05:10:00,
2015-04-28 01:15:00,42.8,38.0,29.79,ENE,57,9.0,10.0,83,0.00,,,0.00,Wunderground v.1.15,2015-04-28 05:15:00,
2015-04-28 01:25:00,42.8,38.0,29.79,NE,42,8.0,8.0,83,0.00,,,0.00,Wunderground v.1.15,2015-04-28 05:25:00,
2015-04-28 01:35:00,42.8,37.7,29.79,ENE,71,8.0,11.0,82,0.00,,,0.00,Wunderground v.1.15,2015-04-28 05:35:00,
2015-04-28 01:40:00,42.8,37.7,29.79,NNE,17,8.0,8.0,82,0.00,,,0.00,Wunderground v.1.15,2015-04-28 05:40:00,
2015-04-28 01:45:00,42.8,37.4,29.80,NNE,32,8.0,9.0,81,0.00,,,0.00,Wunderground v.1.15,2015-04-28 05:45:00,
2015-04-28 01:50:00,42.9,37.5,29.80,ENE,78,9.0,9.0,81,0.00,,,0.00,Wunderground v.1.15,2015-04-28 05:50:00,
2015-04-28 01:55:00,42.9,37.2,29.80,NE,39,10.0,10.0,80,0.00,,,0.00,Wunderground v.1.15,2015-04-28 05:55:00,
2015-04-28 02:05:00,42.9,36.2,29.80,NE,42,10.0,12.0,77,0.00,,,0.00,Wunderground v.1.15,2015-04-28 06:05:00,
2015-04-28 02:10:00,42.8,36.1,29.80,North,355,11.0,15.0,77,0.00,,,0.00,Wunderground v.1.15,2015-04-28 06:10:00,
2015-04-28 02:15:00,42.7,36.3,29.80,NNE,13,9.0,15.0,78,0.00,,,0.00,Wunderground v.1.15,2015-04-28 06:15:00,
2015-04-28 02:20:00,42.5,36.4,29.80,NE,41,6.0,6.0,79,0.00,,,0.00,Wunderground v.1.15,2015-04-28 06:20:00,
2015-04-28 02:30:00,42.4,35.4,29.81,NNE,26,7.0,13.0,76,0.00,,,0.00,Wunderground v.1.15,2015-04-28 06:30:00,
2015-04-28 02:35:00,42.4,35.4,29.81,ENE,64,9.0,13.0,76,0.00,,,0.00,Wunderground v.1.15,2015-04-28 06:35:00,
2015-04-28 02:40:00,42.5,35.5,29.81,NNE,30,9.0,12.0,76,0.00,,,0.00,Wunderground v.1.15,2015-04-28 06:40:00,
2015-04-28 02:45:00,42.4,35.0,29.81,ENE,65,9.0,12.0,75,0.00,,,0.00,Wunderground v.1.15,2015-04-28 06:45:00,
2015-04-28 02:50:00,42.3,35.3,29.81,ENE,65,8.0,8.0,76,0.00,,,0.00,Wunderground v.1.15,2015-04-28 06:50:00,
2015-04-28 02:55:00,42.3,35.3,29.81,ENE,71,8.0,8.0,76,0.00,,,0.00,Wunderground v.1.15,2015-04-28 06:55:00,
2015-04-28 03:00:00,42.1,35.7,29.81,NE,35,8.0,8.0,78,0.00,,,0.00,Wunderground v.1.15,2015-04-28 07:00:00,
2015-04-28 03:05:00,41.9,35.9,29.81,NE,34,7.0,8.0,79,0.00,,,0.00,Wunderground v.1.15,2015-04-28 07:05:00,
2015-04-28 03:15:00,41.8,35.4,29.81,NE,49,7.0,10.0,78,0.00,,,0.00,Wunderground v.1.15,2015-04-28 07:15:00,
2015-04-28 03:20:00,41.8,35.4,29.81,NE,55,8.0,8.0,78,0.00,,,0.00,Wunderground v.1.15,2015-04-28 07:20:00,
2015-04-28 03:25:00,41.8,35.4,29.82,NE,47,6.0,10.0,78,0.00,,,0.00,Wunderground v.1.15,2015-04-28 07:25:00,
2015-04-28 03:35:00,41.3,35.9,29.82,North,5,8.0,8.0,81,0.00,,,0.00,Wunderground v.1.15,2015-04-28 07:35:00,
2015-04-28 03:40:00,40.9,35.8,29.83,ENE,63,8.0,9.0,82,0.00,,,0.00,Wunderground v.1.15,2015-04-28 07:40:00,
2015-04-28 03:45:00,40.7,35.9,29.83,NE,52,7.0,9.0,83,0.00,,,0.00,Wunderground v.1.15,2015-04-28 07:45:00,
2015-04-28 03:50:00,40.7,35.6,29.83,ENE,59,7.0,10.0,82,0.00,,,0.00,Wunderground v.1.15,2015-04-28 07:50:00,
2015-04-28 03:55:00,40.6,35.2,29.83,NE,45,7.0,10.0,81,0.00,,,0.00,Wunderground v.1.15,2015-04-28 07:55:00,
2015-04-28 04:00:00,40.7,35.0,29.83,NE,53,6.0,6.0,80,0.00,,,0.00,Wunderground v.1.15,2015-04-28 08:00:00,
2015-04-28 04:05:00,40.9,34.9,29.83,North,360,6.0,8.0,79,0.00,,,0.00,Wunderground v.1.15,2015-04-28 08:05:00,
2015-04-28 04:10:00,40.9,34.9,29.83,North,5,6.0,6.0,79,0.00,,,0.00,Wunderground v.1.15,2015-04-28 08:10:00,
2015-04-28 04:20:00,41.2,34.2,29.84,NE,36,7.0,7.0,76,0.00,,,0.00,Wunderground v.1.15,2015-04-28 08:20:00,
2015-04-28 04:25:00,41.2,34.2,29.84,NNE,24,8.0,9.0,76,0.00,,,0.00,Wunderground v.1.15,2015-04-28 08:25:00,
2015-04-28 04:35:00,41.3,33.6,29.84,NNE,22,8.0,10.0,74,0.00,,,0.00,Wunderground v.1.15,2015-04-28 08:35:00,
2015-04-28 04:40:00,41.3,34.0,29.84,NNE,31,6.0,6.0,75,0.00,,,0.00,Wunderground v.1.15,2015-04-28 08:40:00,
2015-04-28 04:45:00,41.3,34.0,29.84,NNE,33,5.0,6.0,75,0.00,,,0.00,Wunderground v.1.15,2015-04-28 08:45:00,
2015-04-28 04:55:00,41.4,33.4,29.84,NNE,24,6.0,7.0,73,0.00,,,0.00,Wunderground v.1.15,2015-04-28 08:55:00,
2015-04-28 05:00:00,41.4,33.4,29.84,North,5,6.0,10.0,73,0.00,,,0.00,Wunderground v.1.15,2015-04-28 09:00:00,
2015-04-28 05:05:00,41.5,33.1,29.85,NNE,24,8.0,10.0,72,0.00,,,0.00,Wunderground v.1.15,2015-04-28 09:05:00,
2015-04-28 05:10:00,41.5,33.1,29.85,NNE,13,7.0,7.0,72,0.00,,,0.00,Wunderground v.1.15,2015-04-28 09:10:00,
2015-04-28 05:15:00,41.4,33.4,29.85,NE,40,5.0,7.0,73,0.00,,,0.00,Wunderground v.1.15,2015-04-28 09:15:00,
2015-04-28 05:20:00,41.4,33.4,29.86,North,355,6.0,9.0,73,0.00,,,0.00,Wunderground v.1.15,2015-04-28 09:20:00,
2015-04-28 05:25:00,41.4,33.4,29.86,NNE,19,6.0,9.0,73,0.00,,,0.00,Wunderground v.1.15,2015-04-28 09:25:00,
2015-04-28 05:30:00,41.4,33.4,29.86,NNW,330,5.0,6.0,73,0.00,,,0.00,Wunderground v.1.15,2015-04-28 09:30:00,
2015-04-28 05:35:00,41.3,33.3,29.86,North,5,5.0,6.0,73,0.00,,,0.00,Wunderground v.1.15,2015-04-28 09:35:00,
2015-04-28 05:45:00,41.3,33.3,29.87,NE,36,8.0,14.0,73,0.00,,,0.00,Wunderground v.1.15,2015-04-28 09:45:00,
2015-04-28 05:50:00,41.3,33.3,29.87,North,360,7.0,7.0,73,0.00,,,0.00,Wunderground v.1.15,2015-04-28 09:50:00,
2015-04-28 05:55:00,41.3,33.0,29.87,North,355,7.0,7.0,72,0.00,,,0.00,Wunderground v.1.15,2015-04-28 09:55:00,
2015-04-28 06:05:00,41.2,32.5,29.87,NNW,347,7.0,7.0,71,0.00,,,0.00,Wunderground v.1.15,2015-04-28 10:05:00,
2015-04-28 06:10:00,41.3,32.6,29.87,NE,36,8.0,8.0,71,0.00,,,0.00,Wunderground v.1.15,2015-04-28 10:10:00,
2015-04-28 06:15:00,41.2,32.9,29.87,North,5,8.0,8.0,72,0.00,,,0.00,Wunderground v.1.15,2015-04-28 10:15:00,
2015-04-28 06:20:00,41.2,32.5,29.88,North,355,7.0,10.0,71,0.00,,,0.00,Wunderground v.1.15,2015-04-28 10:20:00,
2015-04-28 06:25:00,41.2,32.5,29.88,NNE,14,8.0,10.0,71,0.00,,,0.00,Wunderground v.1.15,2015-04-28 10:25:00,
2015-04-28 06:35:00,41.2,32.5,29.88,North,5,7.0,8.0,71,0.00,,,0.00,Wunderground v.1.15,2015-04-28 10:35:00,